sensor_id;sensor_type;location;lat;lon;timestamp;pressure;altitude;pressure_sealevel;temperature;humidity
80186;BME280;69904;52.122;5.422;2023-08-21T00:00:30;102343.03;;;19.87;72.35
80186;BME280;69904;52.122;5.422;2023-08-21T00:02:56;102347.88;;;19.85;72.55
80186;BME280;69904;52.122;5.422;2023-08-21T00:05:22;102350.63;;;19.85;72.50
80186;BME280;69904;52.122;5.422;2023-08-21T00:07:49;102351.88;;;19.82;72.47
80186;BME280;69904;52.122;5.422;2023-08-21T00:10:17;102351.88;;;19.82;72.72
80186;BME280;69904;52.122;5.422;2023-08-21T00:12:43;102355.94;;;19.80;72.21
80186;BME280;69904;52.122;5.422;2023-08-21T00:15:10;102356.81;;;19.73;72.57
80186;BME280;69904;52.122;5.422;2023-08-21T00:17:36;102359.38;;;19.68;72.32
80186;BME280;69904;52.122;5.422;2023-08-21T00:20:03;102353.28;;;19.66;72.33
80186;BME280;69904;52.122;5.422;2023-08-21T00:22:29;102364.22;;;19.66;72.68
80186;BME280;69904;52.122;5.422;2023-08-21T00:24:56;102352.25;;;19.61;72.89
80186;BME280;69904;52.122;5.422;2023-08-21T00:27:22;102358.81;;;19.60;73.05
80186;BME280;69904;52.122;5.422;2023-08-21T00:29:49;102355.66;;;19.56;72.87
80186;BME280;69904;52.122;5.422;2023-08-21T00:32:15;102355.66;;;19.56;72.90
80186;BME280;69904;52.122;5.422;2023-08-21T00:34:42;102361.97;;;19.57;73.18
80186;BME280;69904;52.122;5.422;2023-08-21T00:37:08;102351.88;;;19.57;72.87
80186;BME280;69904;52.122;5.422;2023-08-21T00:39:35;102355.66;;;19.56;72.90
80186;BME280;69904;52.122;5.422;2023-08-21T00:42:01;102348.50;;;19.55;72.97
80186;BME280;69904;52.122;5.422;2023-08-21T00:44:28;102354.59;;;19.57;73.01
80186;BME280;69904;52.122;5.422;2023-08-21T00:46:54;102345.75;;;19.55;73.25
80186;BME280;69904;52.122;5.422;2023-08-21T00:49:21;102355.25;;;19.53;73.52
80186;BME280;69904;52.122;5.422;2023-08-21T00:51:48;102349.41;;;19.49;73.11
80186;BME280;69904;52.122;5.422;2023-08-21T00:54:15;102344.34;;;19.46;73.12
80186;BME280;69904;52.122;5.422;2023-08-21T00:56:42;102346.03;;;19.41;73.44
80186;BME280;69904;52.122;5.422;2023-08-21T00:59:09;102337.03;;;19.33;73.70
80186;BME280;69904;52.122;5.422;2023-08-21T01:01:35;102354.53;;;19.26;73.99
80186;BME280;69904;52.122;5.422;2023-08-21T01:04:03;102347.16;;;19.26;73.83
80186;BME280;69904;52.122;5.422;2023-08-21T01:06:29;102341.91;;;19.25;73.90
80186;BME280;69904;52.122;5.422;2023-08-21T01:08:57;102335.16;;;19.27;73.96
80186;BME280;69904;52.122;5.422;2023-08-21T01:11:54;102339.56;;;19.28;73.97
80186;BME280;69904;52.122;5.422;2023-08-21T01:14:43;102346.31;;;19.26;73.75
80186;BME280;69904;52.122;5.422;2023-08-21T01:17:12;102338.13;;;19.26;73.75
80186;BME280;69904;52.122;5.422;2023-08-21T01:19:42;102345.94;;;19.22;74.19
80186;BME280;69904;52.122;5.422;2023-08-21T01:22:09;102341.94;;;19.18;74.03
80186;BME280;69904;52.122;5.422;2023-08-21T01:24:36;102348.50;;;19.17;74.39
80186;BME280;69904;52.122;5.422;2023-08-21T01:27:02;102342.59;;;19.14;74.25
80186;BME280;69904;52.122;5.422;2023-08-21T01:29:29;102335.66;;;19.11;74.17
80186;BME280;69904;52.122;5.422;2023-08-21T01:32:04;102343.63;;;19.13;74.30
80186;BME280;69904;52.122;5.422;2023-08-21T01:34:32;102339.84;;;19.14;74.30
80186;BME280;69904;52.122;5.422;2023-08-21T01:37:00;102346.16;;;19.14;74.73
80186;BME280;69904;52.122;5.422;2023-08-21T01:39:27;102346.81;;;19.16;74.47
80186;BME280;69904;52.122;5.422;2023-08-21T01:41:54;102348.50;;;19.17;74.32
80186;BME280;69904;52.122;5.422;2023-08-21T01:44:22;102347.41;;;19.18;74.77
80186;BME280;69904;52.122;5.422;2023-08-21T01:46:49;102349.94;;;19.20;74.42
80186;BME280;69904;52.122;5.422;2023-08-21T01:49:15;102353.72;;;19.19;74.36
80186;BME280;69904;52.122;5.422;2023-08-21T01:51:41;102349.75;;;19.15;74.84
80186;BME280;69904;52.122;5.422;2023-08-21T01:54:08;102349.75;;;19.15;74.64
80186;BME280;69904;52.122;5.422;2023-08-21T01:56:34;102352.94;;;19.12;74.77
80186;BME280;69904;52.122;5.422;2023-08-21T01:59:04;102347.88;;;19.09;75.11
80186;BME280;69904;52.122;5.422;2023-08-21T02:01:31;102358.81;;;19.09;74.74
80186;BME280;69904;52.122;5.422;2023-08-21T02:03:57;102349.56;;;19.10;74.56
80186;BME280;69904;52.122;5.422;2023-08-21T02:06:24;102351.44;;;19.09;74.63
80186;BME280;69904;52.122;5.422;2023-08-21T02:08:50;102357.13;;;19.08;74.88
80186;BME280;69904;52.122;5.422;2023-08-21T02:11:16;102353.78;;;19.06;75.22
80186;BME280;69904;52.122;5.422;2023-08-21T02:13:43;102352.09;;;19.05;74.76
80186;BME280;69904;52.122;5.422;2023-08-21T02:16:09;102345.78;;;19.04;74.88
80186;BME280;69904;52.122;5.422;2023-08-21T02:18:36;102342.00;;;19.05;74.96
80186;BME280;69904;52.122;5.422;2023-08-21T02:21:02;102349.16;;;19.06;75.12
80186;BME280;69904;52.122;5.422;2023-08-21T02:23:29;102346.19;;;19.08;74.92
80186;BME280;69904;52.122;5.422;2023-08-21T02:25:56;102348.94;;;19.08;75.18
80186;BME280;69904;52.122;5.422;2023-08-21T02:28:22;102352.75;;;19.07;75.32
80186;BME280;69904;52.122;5.422;2023-08-21T02:30:49;102356.53;;;19.06;75.11
80186;BME280;69904;52.122;5.422;2023-08-21T02:33:15;102346.63;;;19.05;75.18
80186;BME280;69904;52.122;5.422;2023-08-21T02:35:42;102344.75;;;19.05;75.70
80186;BME280;69904;52.122;5.422;2023-08-21T02:38:08;102346.44;;;19.06;75.59
80186;BME280;69904;52.122;5.422;2023-08-21T02:40:35;102352.31;;;19.03;75.24
80186;BME280;69904;52.122;5.422;2023-08-21T02:43:01;102354.44;;;19.01;75.26
80186;BME280;69904;52.122;5.422;2023-08-21T02:45:28;102357.59;;;19.05;75.36
80186;BME280;69904;52.122;5.422;2023-08-21T02:47:54;102360.75;;;19.02;75.69
80186;BME280;69904;52.122;5.422;2023-08-21T02:50:21;102355.72;;;18.99;75.46
80186;BME280;69904;52.122;5.422;2023-08-21T02:52:47;102357.59;;;18.98;75.60
80186;BME280;69904;52.122;5.422;2023-08-21T02:55:14;102356.75;;;18.98;75.53
80186;BME280;69904;52.122;5.422;2023-08-21T02:57:41;102351.72;;;18.95;75.97
80186;BME280;69904;52.122;5.422;2023-08-21T03:00:08;102350.25;;;18.92;76.13
80186;BME280;69904;52.122;5.422;2023-08-21T03:02:35;102351.34;;;18.91;76.13
80186;BME280;69904;52.122;5.422;2023-08-21T03:05:03;102346.69;;;18.91;76.16
80186;BME280;69904;52.122;5.422;2023-08-21T03:07:30;102352.59;;;18.88;76.15
80186;BME280;69904;52.122;5.422;2023-08-21T03:09:56;102351.34;;;18.84;76.46
80186;BME280;69904;52.122;5.422;2023-08-21T03:12:22;102345.44;;;18.81;76.70
80186;BME280;69904;52.122;5.422;2023-08-21T03:14:50;102359.75;;;18.83;76.87
80186;BME280;69904;52.122;5.422;2023-08-21T03:17:17;102359.13;;;18.81;76.66
80186;BME280;69904;52.122;5.422;2023-08-21T03:19:44;102351.38;;;18.78;76.94
80186;BME280;69904;52.122;5.422;2023-08-21T03:22:10;102350.53;;;18.77;76.72
80186;BME280;69904;52.122;5.422;2023-08-21T03:24:37;102356.00;;;18.77;76.85
80186;BME280;69904;52.122;5.422;2023-08-21T03:27:03;102355.81;;;18.72;76.83
80186;BME280;69904;52.122;5.422;2023-08-21T03:29:30;102349.94;;;18.69;77.17
80186;BME280;69904;52.122;5.422;2023-08-21T03:31:57;102354.31;;;18.70;77.17
80186;BME280;69904;52.122;5.422;2023-08-21T03:34:24;102354.09;;;18.71;77.38
80186;BME280;69904;52.122;5.422;2023-08-21T03:36:51;102353.72;;;18.68;77.22
80186;BME280;69904;52.122;5.422;2023-08-21T03:39:17;102348.66;;;18.65;77.56
80186;BME280;69904;52.122;5.422;2023-08-21T03:41:44;102348.69;;;18.58;77.21
80186;BME280;69904;52.122;5.422;2023-08-21T03:44:10;102343.84;;;18.54;77.44
80186;BME280;69904;52.122;5.422;2023-08-21T03:46:37;102344.88;;;18.52;77.41
80186;BME280;69904;52.122;5.422;2023-08-21T03:49:03;102343.00;;;18.53;77.62
80186;BME280;69904;52.122;5.422;2023-08-21T03:51:30;102343.84;;;18.54;77.24
80186;BME280;69904;52.122;5.422;2023-08-21T03:53:56;102341.50;;;18.50;77.41
80186;BME280;69904;52.122;5.422;2023-08-21T03:56:23;102338.56;;;18.52;77.26
80186;BME280;69904;52.122;5.422;2023-08-21T03:58:50;102346.13;;;18.50;77.86
80186;BME280;69904;52.122;5.422;2023-08-21T04:01:16;102349.50;;;18.45;77.36
80186;BME280;69904;52.122;5.422;2023-08-21T04:03:43;102342.59;;;18.43;77.69
80186;BME280;69904;52.122;5.422;2023-08-21T04:06:09;102346.56;;;18.40;77.68
80186;BME280;69904;52.122;5.422;2023-08-21T04:08:36;102344.69;;;18.41;77.46
80186;BME280;69904;52.122;5.422;2023-08-21T04:11:02;102344.03;;;18.39;77.80
80186;BME280;69904;52.122;5.422;2023-08-21T04:13:28;102347.63;;;18.39;77.56
80186;BME280;69904;52.122;5.422;2023-08-21T04:15:55;102351.41;;;18.38;77.60
80186;BME280;69904;52.122;5.422;2023-08-21T04:18:23;102358.75;;;18.38;77.67
80186;BME280;69904;52.122;5.422;2023-08-21T04:21:07;102359.59;;;18.38;77.92
80186;BME280;69904;52.122;5.422;2023-08-21T04:23:33;102357.94;;;18.37;77.64
80186;BME280;69904;52.122;5.422;2023-08-21T04:26:03;102361.50;;;18.38;78.01
80186;BME280;69904;52.122;5.422;2023-08-21T04:28:31;102361.09;;;18.34;77.73
80186;BME280;69904;52.122;5.422;2023-08-21T04:30:58;102358.16;;;18.36;77.93
80186;BME280;69904;52.122;5.422;2023-08-21T04:33:28;102360.69;;;18.37;77.98
80186;BME280;69904;52.122;5.422;2023-08-21T04:35:55;102352.69;;;18.36;77.86
80186;BME280;69904;52.122;5.422;2023-08-21T04:38:21;102362.97;;;18.34;78.11
80186;BME280;69904;52.122;5.422;2023-08-21T04:40:48;102360.44;;;18.32;78.35
80186;BME280;69904;52.122;5.422;2023-08-21T04:43:14;102361.53;;;18.31;78.51
80186;BME280;69904;52.122;5.422;2023-08-21T04:45:51;102363.81;;;18.28;78.11
80186;BME280;69904;52.122;5.422;2023-08-21T04:48:19;102362.16;;;18.27;78.28
80186;BME280;69904;52.122;5.422;2023-08-21T04:50:47;102353.13;;;18.26;77.97
80186;BME280;69904;52.122;5.422;2023-08-21T04:53:13;102367.00;;;18.25;78.03
80186;BME280;69904;52.122;5.422;2023-08-21T04:55:40;102366.59;;;18.21;78.10
80186;BME280;69904;52.122;5.422;2023-08-21T04:58:07;102358.78;;;18.18;77.72
80186;BME280;69904;52.122;5.422;2023-08-21T05:00:34;102366.38;;;18.16;77.79
80186;BME280;69904;52.122;5.422;2023-08-21T05:03:00;102364.44;;;18.17;77.57
80186;BME280;69904;52.122;5.422;2023-08-21T05:05:27;102373.28;;;18.19;77.88
80186;BME280;69904;52.122;5.422;2023-08-21T05:07:53;102371.41;;;18.19;77.79
80186;BME280;69904;52.122;5.422;2023-08-21T05:10:20;102382.75;;;18.23;77.26
80186;BME280;69904;52.122;5.422;2023-08-21T05:12:46;102383.59;;;18.23;77.62
80186;BME280;69904;52.122;5.422;2023-08-21T05:15:13;102380.00;;;18.23;77.59
80186;BME280;69904;52.122;5.422;2023-08-21T05:17:40;102380.84;;;18.23;77.74
80186;BME280;69904;52.122;5.422;2023-08-21T05:20:07;102388.66;;;18.26;77.96
80186;BME280;69904;52.122;5.422;2023-08-21T05:22:34;102380.47;;;18.26;77.70
80186;BME280;69904;52.122;5.422;2023-08-21T05:25:01;102391.16;;;18.28;77.91
80186;BME280;69904;52.122;5.422;2023-08-21T05:27:27;102381.31;;;18.27;78.34
80186;BME280;69904;52.122;5.422;2023-08-21T05:29:54;102384.66;;;18.29;78.28
80186;BME280;69904;52.122;5.422;2023-08-21T05:32:20;102383.41;;;18.31;78.03
80186;BME280;69904;52.122;5.422;2023-08-21T05:34:47;102378.53;;;18.33;78.05
80186;BME280;69904;52.122;5.422;2023-08-21T05:37:13;102387.78;;;18.32;78.51
80186;BME280;69904;52.122;5.422;2023-08-21T05:39:39;102385.50;;;18.29;78.60
80186;BME280;69904;52.122;5.422;2023-08-21T05:42:06;102378.56;;;18.27;78.91
80186;BME280;69904;52.122;5.422;2023-08-21T05:44:32;102382.56;;;18.31;78.92
80186;BME280;69904;52.122;5.422;2023-08-21T05:46:59;102387.38;;;18.35;78.90
80186;BME280;69904;52.122;5.422;2023-08-21T05:49:25;102393.25;;;18.39;78.78
80186;BME280;69904;52.122;5.422;2023-08-21T05:51:52;102387.38;;;18.42;78.76
80186;BME280;69904;52.122;5.422;2023-08-21T05:54:19;102392.22;;;18.46;79.37
80186;BME280;69904;52.122;5.422;2023-08-21T05:56:46;102386.94;;;18.51;79.27
80186;BME280;69904;52.122;5.422;2023-08-21T05:59:26;102390.97;;;18.56;79.12
80186;BME280;69904;52.122;5.422;2023-08-21T06:01:54;102401.25;;;18.60;79.35
80186;BME280;69904;52.122;5.422;2023-08-21T06:04:20;102389.06;;;18.63;79.06
80186;BME280;69904;52.122;5.422;2023-08-21T06:06:47;102387.38;;;18.68;79.01
80186;BME280;69904;52.122;5.422;2023-08-21T06:09:13;102394.28;;;18.77;79.03
80186;BME280;69904;52.122;5.422;2023-08-21T06:11:39;102399.53;;;18.85;78.79
80186;BME280;69904;52.122;5.422;2023-08-21T06:14:06;102393.63;;;18.88;79.02
80186;BME280;69904;52.122;5.422;2023-08-21T06:16:32;102396.56;;;18.87;78.92
80186;BME280;69904;52.122;5.422;2023-08-21T06:18:59;102393.81;;;18.93;79.40
80186;BME280;69904;52.122;5.422;2023-08-21T06:21:25;102396.56;;;19.00;79.37
80186;BME280;69904;52.122;5.422;2023-08-21T06:23:52;102399.88;;;19.09;79.36
80186;BME280;69904;52.122;5.422;2023-08-21T06:26:18;102400.31;;;19.12;79.48
80186;BME280;69904;52.122;5.422;2023-08-21T06:28:45;102405.72;;;19.19;78.88
80186;BME280;69904;52.122;5.422;2023-08-21T06:31:11;102403.19;;;19.24;78.94
80186;BME280;69904;52.122;5.422;2023-08-21T06:33:37;102399.38;;;19.31;78.52
80186;BME280;69904;52.122;5.422;2023-08-21T06:36:04;102394.94;;;19.37;78.25
80186;BME280;69904;52.122;5.422;2023-08-21T06:38:30;102402.28;;;19.37;78.22
80186;BME280;69904;52.122;5.422;2023-08-21T06:40:58;102396.19;;;19.34;78.02
80186;BME280;69904;52.122;5.422;2023-08-21T06:43:24;102406.28;;;19.34;77.89
80186;BME280;69904;52.122;5.422;2023-08-21T06:45:51;102396.59;;;19.38;77.69
80186;BME280;69904;52.122;5.422;2023-08-21T06:48:18;102398.69;;;19.43;77.62
80186;BME280;69904;52.122;5.422;2023-08-21T06:50:45;102401.44;;;19.43;77.60
80186;BME280;69904;52.122;5.422;2023-08-21T06:53:11;102398.06;;;19.47;77.23
80186;BME280;69904;52.122;5.422;2023-08-21T06:55:38;102394.63;;;19.58;77.05
80186;BME280;69904;52.122;5.422;2023-08-21T06:58:04;102394.34;;;19.66;77.40
80186;BME280;69904;52.122;5.422;2023-08-21T07:00:30;102399.38;;;19.76;77.26
80186;BME280;69904;52.122;5.422;2023-08-21T07:02:57;102398.09;;;19.79;76.87
80186;BME280;69904;52.122;5.422;2023-08-21T07:05:24;102400.41;;;19.82;76.70
80186;BME280;69904;52.122;5.422;2023-08-21T07:07:50;102405.47;;;19.78;77.35
80186;BME280;69904;52.122;5.422;2023-08-21T07:10:16;102394.50;;;19.78;77.17
80186;BME280;69904;52.122;5.422;2023-08-21T07:12:43;102399.56;;;19.81;77.26
80186;BME280;69904;52.122;5.422;2023-08-21T07:15:09;102399.31;;;19.83;77.49
80186;BME280;69904;52.122;5.422;2023-08-21T07:17:36;102400.50;;;19.93;77.18
80186;BME280;69904;52.122;5.422;2023-08-21T07:20:03;102399.78;;;20.04;76.90
80186;BME280;69904;52.122;5.422;2023-08-21T07:22:30;102403.28;;;20.18;77.25
80186;BME280;69904;52.122;5.422;2023-08-21T07:24:56;102411.69;;;20.23;76.52
80186;BME280;69904;52.122;5.422;2023-08-21T07:27:23;102407.03;;;20.24;76.95
80186;BME280;69904;52.122;5.422;2023-08-21T07:29:49;102415.28;;;20.24;76.05
80186;BME280;69904;52.122;5.422;2023-08-21T07:32:16;102400.25;;;20.26;75.84
80186;BME280;69904;52.122;5.422;2023-08-21T07:34:42;102404.47;;;20.29;75.43
80186;BME280;69904;52.122;5.422;2023-08-21T07:37:09;102406.16;;;20.30;74.89
80186;BME280;69904;52.122;5.422;2023-08-21T07:39:35;102404.88;;;20.32;75.01
80186;BME280;69904;52.122;5.422;2023-08-21T07:42:02;102405.50;;;20.34;73.90
80186;BME280;69904;52.122;5.422;2023-08-21T07:44:28;102408.63;;;20.38;74.16
80186;BME280;69904;52.122;5.422;2023-08-21T07:46:54;102415.97;;;20.44;74.41
80186;BME280;69904;52.122;5.422;2023-08-21T07:49:21;102409.59;;;20.50;74.53
80186;BME280;69904;52.122;5.422;2023-08-21T07:51:47;102398.72;;;20.62;74.57
80186;BME280;69904;52.122;5.422;2023-08-21T07:54:14;102410.69;;;20.67;73.12
80186;BME280;69904;52.122;5.422;2023-08-21T07:56:40;102415.50;;;20.72;72.91
80186;BME280;69904;52.122;5.422;2023-08-21T07:59:07;102409.38;;;20.70;72.23
80186;BME280;69904;52.122;5.422;2023-08-21T08:01:34;102412.91;;;20.77;72.07
80186;BME280;69904;52.122;5.422;2023-08-21T08:04:00;102415.41;;;20.78;70.46
80186;BME280;69904;52.122;5.422;2023-08-21T08:06:27;102411.59;;;20.79;69.42
80186;BME280;69904;52.122;5.422;2023-08-21T08:08:53;102419.63;;;20.81;69.03
80186;BME280;69904;52.122;5.422;2023-08-21T08:11:20;102409.84;;;20.85;69.42
80186;BME280;69904;52.122;5.422;2023-08-21T08:13:46;102408.50;;;20.94;68.92
80186;BME280;69904;52.122;5.422;2023-08-21T08:16:12;102425.56;;;20.96;67.67
80186;BME280;69904;52.122;5.422;2023-08-21T08:18:39;102420.44;;;20.99;66.33
80186;BME280;69904;52.122;5.422;2023-08-21T08:21:05;102427.25;;;20.97;66.61
80186;BME280;69904;52.122;5.422;2023-08-21T08:23:32;102430.69;;;20.92;66.16
80186;BME280;69904;52.122;5.422;2023-08-21T08:25:59;102428.38;;;20.89;66.09
80186;BME280;69904;52.122;5.422;2023-08-21T08:28:25;102429.00;;;20.91;66.06
80186;BME280;69904;52.122;5.422;2023-08-21T08:30:52;102425.72;;;21.01;66.56
80186;BME280;69904;52.122;5.422;2023-08-21T08:33:18;102418.09;;;21.03;66.61
80186;BME280;69904;52.122;5.422;2023-08-21T08:35:44;102415.66;;;21.13;65.81
80186;BME280;69904;52.122;5.422;2023-08-21T08:38:11;102419.56;;;21.24;66.14
80186;BME280;69904;52.122;5.422;2023-08-21T08:40:43;102416.75;;;21.30;65.64
80186;BME280;69904;52.122;5.422;2023-08-21T08:43:11;102416.56;;;21.43;65.05
80186;BME280;69904;52.122;5.422;2023-08-21T08:45:40;102425.78;;;21.49;64.86
80186;BME280;69904;52.122;5.422;2023-08-21T08:48:07;102433.66;;;21.46;63.85
80186;BME280;69904;52.122;5.422;2023-08-21T08:50:34;102439.53;;;21.49;63.76
80186;BME280;69904;52.122;5.422;2023-08-21T08:53:01;102435.50;;;21.52;64.14
80186;BME280;69904;52.122;5.422;2023-08-21T08:55:41;102432.63;;;21.58;63.37
80186;BME280;69904;52.122;5.422;2023-08-21T08:58:07;102428.81;;;21.59;63.28
80186;BME280;69904;52.122;5.422;2023-08-21T09:00:34;102419.44;;;21.67;62.83
80186;BME280;69904;52.122;5.422;2023-08-21T09:03:00;102414.31;;;21.70;63.57
80186;BME280;69904;52.122;5.422;2023-08-21T09:05:27;102422.81;;;21.80;62.66
80186;BME280;69904;52.122;5.422;2023-08-21T09:08:12;102418.78;;;21.83;62.49
80186;BME280;69904;52.122;5.422;2023-08-21T09:10:39;102413.50;;;21.81;62.39
80186;BME280;69904;52.122;5.422;2023-08-21T09:13:17;102404.94;;;21.90;63.00
80186;BME280;69904;52.122;5.422;2023-08-21T09:15:46;102415.16;;;22.01;63.00
80186;BME280;69904;52.122;5.422;2023-08-21T09:18:14;102415.66;;;22.09;62.54
80186;BME280;69904;52.122;5.422;2023-08-21T09:20:41;102414.47;;;22.17;61.60
80186;BME280;69904;52.122;5.422;2023-08-21T09:23:13;102414.00;;;22.20;60.41
80186;BME280;69904;52.122;5.422;2023-08-21T09:25:40;102414.13;;;22.25;60.82
80186;BME280;69904;52.122;5.422;2023-08-21T09:28:08;102406.34;;;22.34;60.74
80186;BME280;69904;52.122;5.422;2023-08-21T09:33:16;102420.34;;;22.44;59.31
80186;BME280;69904;52.122;5.422;2023-08-21T09:35:43;102417.13;;;22.47;59.80
80186;BME280;69904;52.122;5.422;2023-08-21T09:38:10;102415.81;;;22.49;58.16
80186;BME280;69904;52.122;5.422;2023-08-21T09:40:44;102418.34;;;22.62;57.28
80186;BME280;69904;52.122;5.422;2023-08-21T09:43:15;102413.94;;;22.73;57.78
80186;BME280;69904;52.122;5.422;2023-08-21T09:45:46;102407.72;;;22.78;58.49
80186;BME280;69904;52.122;5.422;2023-08-21T09:48:13;102407.69;;;22.89;58.32
80186;BME280;69904;52.122;5.422;2023-08-21T09:50:40;102400.16;;;22.96;56.95
80186;BME280;69904;52.122;5.422;2023-08-21T09:53:07;102410.56;;;22.94;56.22
80186;BME280;69904;52.122;5.422;2023-08-21T09:55:34;102402.66;;;22.98;55.09
80186;BME280;69904;52.122;5.422;2023-08-21T09:58:02;102399.66;;;22.99;54.74
80186;BME280;69904;52.122;5.422;2023-08-21T10:00:32;102400.09;;;23.08;54.76
80186;BME280;69904;52.122;5.422;2023-08-21T10:03:04;102406.22;;;23.10;56.33
80186;BME280;69904;52.122;5.422;2023-08-21T10:05:32;102399.25;;;23.19;56.81
80186;BME280;69904;52.122;5.422;2023-08-21T10:08:00;102402.44;;;23.39;55.89
80186;BME280;69904;52.122;5.422;2023-08-21T10:10:34;102398.56;;;23.40;56.12
80186;BME280;69904;52.122;5.422;2023-08-21T10:13:02;102391.66;;;23.38;55.35
80186;BME280;69904;52.122;5.422;2023-08-21T10:15:31;102390.53;;;23.50;55.32
80186;BME280;69904;52.122;5.422;2023-08-21T10:17:58;102381.84;;;23.70;53.73
80186;BME280;69904;52.122;5.422;2023-08-21T10:20:25;102376.66;;;23.74;54.16
80186;BME280;69904;52.122;5.422;2023-08-21T10:22:53;102385.94;;;23.84;55.15
80186;BME280;69904;52.122;5.422;2023-08-21T10:25:24;102370.56;;;23.88;54.96
80186;BME280;69904;52.122;5.422;2023-08-21T10:27:58;102379.13;;;24.04;52.95
80186;BME280;69904;52.122;5.422;2023-08-21T10:30:27;102373.69;;;23.92;52.15
80186;BME280;69904;52.122;5.422;2023-08-21T10:32:56;102380.38;;;23.96;52.43
80186;BME280;69904;52.122;5.422;2023-08-21T10:35:24;102388.81;;;24.06;51.89
80186;BME280;69904;52.122;5.422;2023-08-21T10:40:37;102384.31;;;24.17;51.48
80186;BME280;69904;52.122;5.422;2023-08-21T10:43:04;102385.09;;;24.29;51.53
80186;BME280;69904;52.122;5.422;2023-08-21T10:45:31;102388.00;;;24.39;51.68
80186;BME280;69904;52.122;5.422;2023-08-21T10:47:58;102390.16;;;24.54;50.50
80186;BME280;69904;52.122;5.422;2023-08-21T10:50:25;102386.72;;;24.47;50.42
80186;BME280;69904;52.122;5.422;2023-08-21T10:52:53;102389.16;;;24.60;50.85
80186;BME280;69904;52.122;5.422;2023-08-21T10:55:20;102394.91;;;24.75;50.71
80186;BME280;69904;52.122;5.422;2023-08-21T10:57:49;102383.91;;;24.80;50.70
80186;BME280;69904;52.122;5.422;2023-08-21T11:00:17;102387.41;;;24.54;50.93
80186;BME280;69904;52.122;5.422;2023-08-21T11:02:45;102381.09;;;24.75;51.27
80186;BME280;69904;52.122;5.422;2023-08-21T11:05:14;102379.03;;;25.04;49.85
80186;BME280;69904;52.122;5.422;2023-08-21T11:07:45;102379.53;;;25.23;49.71
80186;BME280;69904;52.122;5.422;2023-08-21T11:10:17;102382.75;;;25.36;48.95
80186;BME280;69904;52.122;5.422;2023-08-21T11:12:54;102383.63;;;25.42;48.70
80186;BME280;69904;52.122;5.422;2023-08-21T11:15:28;102388.34;;;25.20;48.94
80186;BME280;69904;52.122;5.422;2023-08-21T11:20:33;102385.16;;;25.33;47.04
80186;BME280;69904;52.122;5.422;2023-08-21T11:23:05;102382.16;;;25.34;46.03
80186;BME280;69904;52.122;5.422;2023-08-21T11:25:34;102373.97;;;25.44;46.08
80186;BME280;69904;52.122;5.422;2023-08-21T11:28:01;102378.16;;;25.47;45.73
80186;BME280;69904;52.122;5.422;2023-08-21T11:30:30;102384.09;;;25.55;45.41
80186;BME280;69904;52.122;5.422;2023-08-21T11:33:12;102381.53;;;25.54;43.54
80186;BME280;69904;52.122;5.422;2023-08-21T11:35:41;102383.84;;;25.35;44.33
80186;BME280;69904;52.122;5.422;2023-08-21T11:38:21;102385.09;;;25.49;44.02
80186;BME280;69904;52.122;5.422;2023-08-21T11:40:55;102383.94;;;25.45;45.16
80186;BME280;69904;52.122;5.422;2023-08-21T11:43:33;102381.47;;;25.49;45.06
80186;BME280;69904;52.122;5.422;2023-08-21T11:46:01;102373.31;;;25.59;44.98
80186;BME280;69904;52.122;5.422;2023-08-21T11:48:28;102378.78;;;25.54;42.95
80186;BME280;69904;52.122;5.422;2023-08-21T11:50:55;102373.13;;;25.44;43.11
80186;BME280;69904;52.122;5.422;2023-08-21T11:53:32;102373.97;;;25.44;44.43
80186;BME280;69904;52.122;5.422;2023-08-21T11:55:59;102364.06;;;25.48;43.71
80186;BME280;69904;52.122;5.422;2023-08-21T11:58:27;102368.00;;;25.52;43.69
80186;BME280;69904;52.122;5.422;2023-08-21T12:00:55;102360.19;;;25.71;43.59
80186;BME280;69904;52.122;5.422;2023-08-21T12:03:27;102361.81;;;25.67;42.79
80186;BME280;69904;52.122;5.422;2023-08-21T12:05:54;102362.56;;;25.58;43.73
80186;BME280;69904;52.122;5.422;2023-08-21T12:08:21;102368.13;;;25.63;43.71
80186;BME280;69904;52.122;5.422;2023-08-21T12:10:50;102364.91;;;25.49;43.07
80186;BME280;69904;52.122;5.422;2023-08-21T12:13:18;102361.25;;;25.43;43.82
80186;BME280;69904;52.122;5.422;2023-08-21T12:15:44;102359.66;;;25.47;43.65
80186;BME280;69904;52.122;5.422;2023-08-21T12:18:11;102357.19;;;25.51;44.35
80186;BME280;69904;52.122;5.422;2023-08-21T12:20:38;102350.16;;;25.65;45.19
80186;BME280;69904;52.122;5.422;2023-08-21T12:23:04;102346.31;;;25.66;44.75
80186;BME280;69904;52.122;5.422;2023-08-21T12:25:31;102345.81;;;25.69;44.57
80186;BME280;69904;52.122;5.422;2023-08-21T12:27:58;102350.25;;;25.75;45.20
80186;BME280;69904;52.122;5.422;2023-08-21T12:30:35;102342.84;;;25.81;44.29
80186;BME280;69904;52.122;5.422;2023-08-21T12:33:01;102340.13;;;25.86;44.76
80186;BME280;69904;52.122;5.422;2023-08-21T12:35:45;102356.03;;;26.01;45.18
80186;BME280;69904;52.122;5.422;2023-08-21T12:38:12;102340.22;;;25.96;43.00
80186;BME280;69904;52.122;5.422;2023-08-21T12:40:39;102344.34;;;25.93;43.78
80186;BME280;69904;52.122;5.422;2023-08-21T12:43:06;102339.41;;;25.95;43.63
80186;BME280;69904;52.122;5.422;2023-08-21T12:45:35;102335.84;;;26.00;44.38
80186;BME280;69904;52.122;5.422;2023-08-21T12:48:02;102343.34;;;26.05;46.34
80186;BME280;69904;52.122;5.422;2023-08-21T12:50:30;102331.22;;;26.11;46.05
80186;BME280;69904;52.122;5.422;2023-08-21T12:52:56;102335.00;;;25.99;43.77
80186;BME280;69904;52.122;5.422;2023-08-21T12:55:23;102339.72;;;26.04;43.95
80186;BME280;69904;52.122;5.422;2023-08-21T12:57:49;102336.38;;;26.02;44.15
80186;BME280;69904;52.122;5.422;2023-08-21T13:00:16;102343.63;;;26.08;45.21